sensor_id;sensor_type;location;lat;lon;timestamp;temperature;humidity
4651;DHT22;2338;49.602;8.722;2024-01-16T00:01:14;1.10;99.90
4651;DHT22;2338;49.602;8.722;2024-01-16T00:04:00;1.10;99.90
4651;DHT22;2338;49.602;8.722;2024-01-16T00:06:46;1.00;99.90
4651;DHT22;2338;49.602;8.722;2024-01-16T00:09:33;0.80;99.90
4651;DHT22;2338;49.602;8.722;2024-01-16T00:12:19;0.80;99.90
4651;DHT22;2338;49.602;8.722;2024-01-16T00:15:05;0.70;99.90
4651;DHT22;2338;49.602;8.722;2024-01-16T00:17:52;0.60;99.90
4651;DHT22;2338;49.602;8.722;2024-01-16T00:20:38;0.60;99.90
4651;DHT22;2338;49.602;8.722;2024-01-16T00:23:24;0.50;99.90
4651;DHT22;2338;49.602;8.722;2024-01-16T00:26:19;0.50;99.90
4651;DHT22;2338;49.602;8.722;2024-01-16T00:29:05;0.50;99.90
4651;DHT22;2338;49.602;8.722;2024-01-16T00:31:51;0.60;99.90
4651;DHT22;2338;49.602;8.722;2024-01-16T00:34:38;0.60;99.90
4651;DHT22;2338;49.602;8.722;2024-01-16T00:37:23;0.60;99.90
4651;DHT22;2338;49.602;8.722;2024-01-16T00:40:09;0.60;99.90
4651;DHT22;2338;49.602;8.722;2024-01-16T00:42:55;0.60;99.90
4651;DHT22;2338;49.602;8.722;2024-01-16T00:45:41;0.60;99.90
4651;DHT22;2338;49.602;8.722;2024-01-16T00:48:27;0.70;99.90
4651;DHT22;2338;49.602;8.722;2024-01-16T00:51:14;0.60;99.90
4651;DHT22;2338;49.602;8.722;2024-01-16T00:53:59;0.60;99.90
4651;DHT22;2338;49.602;8.722;2024-01-16T00:56:45;0.60;99.90
4651;DHT22;2338;49.602;8.722;2024-01-16T00:59:31;0.50;99.90
4651;DHT22;2338;49.602;8.722;2024-01-16T01:02:17;0.50;99.90
4651;DHT22;2338;49.602;8.722;2024-01-16T01:05:02;0.50;99.90
4651;DHT22;2338;49.602;8.722;2024-01-16T01:07:49;0.60;99.90
4651;DHT22;2338;49.602;8.722;2024-01-16T01:10:35;0.70;99.90
4651;DHT22;2338;49.602;8.722;2024-01-16T01:13:21;0.80;99.90
4651;DHT22;2338;49.602;8.722;2024-01-16T01:16:06;0.80;99.90
4651;DHT22;2338;49.602;8.722;2024-01-16T01:18:53;0.80;99.90
4651;DHT22;2338;49.602;8.722;2024-01-16T01:21:38;0.90;99.90
4651;DHT22;2338;49.602;8.722;2024-01-16T01:24:25;1.00;99.90
4651;DHT22;2338;49.602;8.722;2024-01-16T01:27:11;1.00;99.90
4651;DHT22;2338;49.602;8.722;2024-01-16T01:29:57;0.90;99.90
4651;DHT22;2338;49.602;8.722;2024-01-16T01:32:43;0.90;99.90
4651;DHT22;2338;49.602;8.722;2024-01-16T01:35:29;0.90;99.90
4651;DHT22;2338;49.602;8.722;2024-01-16T01:38:15;0.90;99.90
4651;DHT22;2338;49.602;8.722;2024-01-16T01:41:02;1.00;99.90
4651;DHT22;2338;49.602;8.722;2024-01-16T01:43:48;1.00;99.90
4651;DHT22;2338;49.602;8.722;2024-01-16T01:46:35;1.00;99.90
4651;DHT22;2338;49.602;8.722;2024-01-16T01:49:22;1.00;99.90
4651;DHT22;2338;49.602;8.722;2024-01-16T01:52:08;1.00;99.90
4651;DHT22;2338;49.602;8.722;2024-01-16T01:54:54;1.00;99.90
4651;DHT22;2338;49.602;8.722;2024-01-16T01:57:41;1.00;99.90
4651;DHT22;2338;49.602;8.722;2024-01-16T02:00:27;1.00;99.90
4651;DHT22;2338;49.602;8.722;2024-01-16T02:03:13;0.90;99.90
4651;DHT22;2338;49.602;8.722;2024-01-16T02:05:59;0.90;99.90
4651;DHT22;2338;49.602;8.722;2024-01-16T02:08:45;0.80;99.90
4651;DHT22;2338;49.602;8.722;2024-01-16T02:11:31;0.90;99.90
4651;DHT22;2338;49.602;8.722;2024-01-16T02:14:18;0.90;99.90
4651;DHT22;2338;49.602;8.722;2024-01-16T02:17:04;0.90;99.90
4651;DHT22;2338;49.602;8.722;2024-01-16T02:19:50;0.90;99.90
4651;DHT22;2338;49.602;8.722;2024-01-16T02:22:36;0.90;99.90
4651;DHT22;2338;49.602;8.722;2024-01-16T02:25:24;0.90;99.90
4651;DHT22;2338;49.602;8.722;2024-01-16T02:28:10;0.90;99.90
4651;DHT22;2338;49.602;8.722;2024-01-16T02:30:56;1.00;99.90
4651;DHT22;2338;49.602;8.722;2024-01-16T02:33:41;1.10;99.90
4651;DHT22;2338;49.602;8.722;2024-01-16T02:36:27;1.10;99.90
4651;DHT22;2338;49.602;8.722;2024-01-16T02:39:13;1.20;99.90
4651;DHT22;2338;49.602;8.722;2024-01-16T02:42:00;1.10;99.90
4651;DHT22;2338;49.602;8.722;2024-01-16T02:44:46;1.10;99.90
4651;DHT22;2338;49.602;8.722;2024-01-16T02:47:31;1.10;99.90
4651;DHT22;2338;49.602;8.722;2024-01-16T02:50:17;1.00;99.90
4651;DHT22;2338;49.602;8.722;2024-01-16T02:53:04;1.10;99.90
4651;DHT22;2338;49.602;8.722;2024-01-16T02:55:50;1.00;99.90
4651;DHT22;2338;49.602;8.722;2024-01-16T02:58:37;1.00;99.90
4651;DHT22;2338;49.602;8.722;2024-01-16T03:01:23;1.00;99.90
4651;DHT22;2338;49.602;8.722;2024-01-16T03:04:09;1.00;99.90
4651;DHT22;2338;49.602;8.722;2024-01-16T03:06:54;1.00;99.90
4651;DHT22;2338;49.602;8.722;2024-01-16T03:09:40;1.00;99.90
4651;DHT22;2338;49.602;8.722;2024-01-16T03:12:25;1.00;99.90
4651;DHT22;2338;49.602;8.722;2024-01-16T03:15:13;1.00;99.90
4651;DHT22;2338;49.602;8.722;2024-01-16T03:17:59;0.90;99.90
4651;DHT22;2338;49.602;8.722;2024-01-16T03:20:45;0.80;99.90
4651;DHT22;2338;49.602;8.722;2024-01-16T03:23:30;0.80;99.90
4651;DHT22;2338;49.602;8.722;2024-01-16T03:26:16;0.80;99.90
4651;DHT22;2338;49.602;8.722;2024-01-16T03:29:02;0.70;99.90
4651;DHT22;2338;49.602;8.722;2024-01-16T03:31:50;0.70;99.90
4651;DHT22;2338;49.602;8.722;2024-01-16T03:34:35;0.70;99.90
4651;DHT22;2338;49.602;8.722;2024-01-16T03:37:21;0.70;99.90
4651;DHT22;2338;49.602;8.722;2024-01-16T03:40:07;0.60;99.90
4651;DHT22;2338;49.602;8.722;2024-01-16T03:42:53;0.40;99.90
4651;DHT22;2338;49.602;8.722;2024-01-16T03:45:39;0.40;99.90
4651;DHT22;2338;49.602;8.722;2024-01-16T03:48:26;0.50;99.90
4651;DHT22;2338;49.602;8.722;2024-01-16T03:51:11;0.60;99.90
4651;DHT22;2338;49.602;8.722;2024-01-16T03:53:59;0.50;99.90
4651;DHT22;2338;49.602;8.722;2024-01-16T03:56:45;0.50;99.90
4651;DHT22;2338;49.602;8.722;2024-01-16T03:59:31;0.50;99.90
4651;DHT22;2338;49.602;8.722;2024-01-16T04:02:17;0.50;99.90
4651;DHT22;2338;49.602;8.722;2024-01-16T04:05:04;0.40;99.90
4651;DHT22;2338;49.602;8.722;2024-01-16T04:07:50;0.40;99.90
4651;DHT22;2338;49.602;8.722;2024-01-16T04:10:36;0.40;99.90
4651;DHT22;2338;49.602;8.722;2024-01-16T04:13:22;0.20;99.90
4651;DHT22;2338;49.602;8.722;2024-01-16T04:16:07;0.10;99.90
4651;DHT22;2338;49.602;8.722;2024-01-16T04:18:53;0.10;99.90
4651;DHT22;2338;49.602;8.722;2024-01-16T04:21:40;0.00;99.90
4651;DHT22;2338;49.602;8.722;2024-01-16T04:24:25;0.00;99.90
4651;DHT22;2338;49.602;8.722;2024-01-16T04:27:12;0.00;99.90
4651;DHT22;2338;49.602;8.722;2024-01-16T04:29:57;0.00;99.90
4651;DHT22;2338;49.602;8.722;2024-01-16T04:32:43;0.00;99.90
4651;DHT22;2338;49.602;8.722;2024-01-16T04:35:29;-0.10;99.90
4651;DHT22;2338;49.602;8.722;2024-01-16T04:38:16;-0.10;99.90
4651;DHT22;2338;49.602;8.722;2024-01-16T04:41:02;-0.10;99.90
4651;DHT22;2338;49.602;8.722;2024-01-16T04:43:48;0.00;99.90
4651;DHT22;2338;49.602;8.722;2024-01-16T04:46:34;0.10;99.90
4651;DHT22;2338;49.602;8.722;2024-01-16T04:49:20;-0.10;99.90
4651;DHT22;2338;49.602;8.722;2024-01-16T04:52:06;-0.20;99.90
4651;DHT22;2338;49.602;8.722;2024-01-16T04:54:53;-0.20;99.90
4651;DHT22;2338;49.602;8.722;2024-01-16T04:57:38;-0.30;99.90
4651;DHT22;2338;49.602;8.722;2024-01-16T05:00:24;-0.40;99.90
4651;DHT22;2338;49.602;8.722;2024-01-16T05:03:09;-0.30;99.90
4651;DHT22;2338;49.602;8.722;2024-01-16T05:05:55;-0.40;99.90
4651;DHT22;2338;49.602;8.722;2024-01-16T05:08:41;-0.40;99.90
4651;DHT22;2338;49.602;8.722;2024-01-16T05:11:28;-0.40;99.90
4651;DHT22;2338;49.602;8.722;2024-01-16T05:14:13;-0.50;99.90
4651;DHT22;2338;49.602;8.722;2024-01-16T05:16:59;-0.50;99.90
4651;DHT22;2338;49.602;8.722;2024-01-16T05:19:45;-0.40;99.90
4651;DHT22;2338;49.602;8.722;2024-01-16T05:22:31;-0.60;99.90
4651;DHT22;2338;49.602;8.722;2024-01-16T05:25:16;-0.60;99.90
4651;DHT22;2338;49.602;8.722;2024-01-16T05:28:04;-0.60;99.90
4651;DHT22;2338;49.602;8.722;2024-01-16T05:30:50;-0.80;99.90
4651;DHT22;2338;49.602;8.722;2024-01-16T05:33:36;-0.80;99.90
4651;DHT22;2338;49.602;8.722;2024-01-16T05:36:21;-1.10;99.90
4651;DHT22;2338;49.602;8.722;2024-01-16T05:39:07;-1.10;99.90
4651;DHT22;2338;49.602;8.722;2024-01-16T05:41:53;-1.10;99.90
4651;DHT22;2338;49.602;8.722;2024-01-16T05:44:40;-1.20;99.90
4651;DHT22;2338;49.602;8.722;2024-01-16T05:47:25;-1.40;99.90
4651;DHT22;2338;49.602;8.722;2024-01-16T05:50:12;-1.40;99.90
4651;DHT22;2338;49.602;8.722;2024-01-16T05:53:00;-1.50;99.90
4651;DHT22;2338;49.602;8.722;2024-01-16T05:55:46;-1.60;99.90
4651;DHT22;2338;49.602;8.722;2024-01-16T05:58:32;-1.60;99.90
4651;DHT22;2338;49.602;8.722;2024-01-16T06:01:24;-1.60;99.90
4651;DHT22;2338;49.602;8.722;2024-01-16T06:04:11;-1.70;99.90
4651;DHT22;2338;49.602;8.722;2024-01-16T06:06:56;-1.80;99.90
4651;DHT22;2338;49.602;8.722;2024-01-16T06:09:42;-2.00;99.90
4651;DHT22;2338;49.602;8.722;2024-01-16T06:12:27;-2.20;99.90
4651;DHT22;2338;49.602;8.722;2024-01-16T06:15:13;-2.10;99.90
4651;DHT22;2338;49.602;8.722;2024-01-16T06:18:00;-2.30;99.90
4651;DHT22;2338;49.602;8.722;2024-01-16T06:20:46;-2.40;99.90
4651;DHT22;2338;49.602;8.722;2024-01-16T06:23:31;-2.30;99.90
4651;DHT22;2338;49.602;8.722;2024-01-16T06:26:17;-2.40;99.90
4651;DHT22;2338;49.602;8.722;2024-01-16T06:29:03;-2.40;99.90
4651;DHT22;2338;49.602;8.722;2024-01-16T06:31:49;-2.50;99.90
4651;DHT22;2338;49.602;8.722;2024-01-16T06:34:36;-2.60;99.90
4651;DHT22;2338;49.602;8.722;2024-01-16T06:37:21;-2.40;99.90
4651;DHT22;2338;49.602;8.722;2024-01-16T06:40:07;-2.30;99.90
4651;DHT22;2338;49.602;8.722;2024-01-16T06:42:53;-2.30;99.90
4651;DHT22;2338;49.602;8.722;2024-01-16T06:45:39;-2.10;99.90
4651;DHT22;2338;49.602;8.722;2024-01-16T06:48:25;-2.30;99.90
4651;DHT22;2338;49.602;8.722;2024-01-16T06:51:12;-2.40;99.90
4651;DHT22;2338;49.602;8.722;2024-01-16T06:53:58;-2.30;99.90
4651;DHT22;2338;49.602;8.722;2024-01-16T06:56:44;-2.50;99.90
4651;DHT22;2338;49.602;8.722;2024-01-16T06:59:30;-2.50;99.90
4651;DHT22;2338;49.602;8.722;2024-01-16T07:02:16;-2.60;99.90
4651;DHT22;2338;49.602;8.722;2024-01-16T07:05:01;-2.60;99.90
4651;DHT22;2338;49.602;8.722;2024-01-16T07:07:49;-2.50;99.90
4651;DHT22;2338;49.602;8.722;2024-01-16T07:10:35;-2.40;99.90
4651;DHT22;2338;49.602;8.722;2024-01-16T07:13:21;-2.30;99.90
4651;DHT22;2338;49.602;8.722;2024-01-16T07:16:08;-2.20;99.90
4651;DHT22;2338;49.602;8.722;2024-01-16T07:18:54;-2.10;99.90
4651;DHT22;2338;49.602;8.722;2024-01-16T07:21:40;-2.20;99.90
4651;DHT22;2338;49.602;8.722;2024-01-16T07:24:27;-2.10;99.90
4651;DHT22;2338;49.602;8.722;2024-01-16T07:27:12;-2.10;99.90
4651;DHT22;2338;49.602;8.722;2024-01-16T07:29:58;-2.10;99.90
4651;DHT22;2338;49.602;8.722;2024-01-16T07:32:43;-2.00;99.90
4651;DHT22;2338;49.602;8.722;2024-01-16T07:35:29;-1.90;99.90
4651;DHT22;2338;49.602;8.722;2024-01-16T07:38:14;-2.00;99.90
4651;DHT22;2338;49.602;8.722;2024-01-16T07:41:01;-2.20;99.90
4651;DHT22;2338;49.602;8.722;2024-01-16T07:43:47;-2.20;99.90
4651;DHT22;2338;49.602;8.722;2024-01-16T07:46:33;-2.00;99.90
4651;DHT22;2338;49.602;8.722;2024-01-16T07:49:19;-1.90;99.90
4651;DHT22;2338;49.602;8.722;2024-01-16T07:52:05;-1.80;99.90
4651;DHT22;2338;49.602;8.722;2024-01-16T07:54:50;-1.90;99.90
4651;DHT22;2338;49.602;8.722;2024-01-16T07:57:37;-2.00;99.90
4651;DHT22;2338;49.602;8.722;2024-01-16T08:00:23;-2.00;99.90
4651;DHT22;2338;49.602;8.722;2024-01-16T08:03:09;-1.90;99.90
4651;DHT22;2338;49.602;8.722;2024-01-16T08:05:55;-1.70;99.90
4651;DHT22;2338;49.602;8.722;2024-01-16T08:08:41;-1.70;99.90
4651;DHT22;2338;49.602;8.722;2024-01-16T08:11:27;-1.70;99.90
4651;DHT22;2338;49.602;8.722;2024-01-16T08:14:14;-1.60;99.90
4651;DHT22;2338;49.602;8.722;2024-01-16T08:17:00;-1.60;99.90
4651;DHT22;2338;49.602;8.722;2024-01-16T08:19:46;-1.60;99.90
4651;DHT22;2338;49.602;8.722;2024-01-16T08:22:32;-1.50;99.90
4651;DHT22;2338;49.602;8.722;2024-01-16T08:25:17;-1.30;99.90
4651;DHT22;2338;49.602;8.722;2024-01-16T08:28:03;-1.30;99.90
4651;DHT22;2338;49.602;8.722;2024-01-16T08:30:50;-1.20;99.90
4651;DHT22;2338;49.602;8.722;2024-01-16T08:33:36;-1.10;99.90
4651;DHT22;2338;49.602;8.722;2024-01-16T08:36:21;-1.00;99.90
4651;DHT22;2338;49.602;8.722;2024-01-16T08:39:07;-0.90;99.90
4651;DHT22;2338;49.602;8.722;2024-01-16T08:41:53;-0.80;99.90
4651;DHT22;2338;49.602;8.722;2024-01-16T08:44:38;-0.80;99.90
4651;DHT22;2338;49.602;8.722;2024-01-16T08:47:25;-0.70;99.90
4651;DHT22;2338;49.602;8.722;2024-01-16T08:50:11;-0.80;99.90
4651;DHT22;2338;49.602;8.722;2024-01-16T08:52:56;-0.80;99.90
4651;DHT22;2338;49.602;8.722;2024-01-16T08:55:42;-0.70;99.90
4651;DHT22;2338;49.602;8.722;2024-01-16T08:58:28;-0.80;99.90
4651;DHT22;2338;49.602;8.722;2024-01-16T09:01:13;-0.70;99.90
4651;DHT22;2338;49.602;8.722;2024-01-16T09:04:00;-0.50;99.90
4651;DHT22;2338;49.602;8.722;2024-01-16T09:06:46;-0.40;99.90
4651;DHT22;2338;49.602;8.722;2024-01-16T09:09:31;-0.20;99.90
4651;DHT22;2338;49.602;8.722;2024-01-16T09:12:17;-0.20;99.90
4651;DHT22;2338;49.602;8.722;2024-01-16T09:15:03;-0.10;99.90
4651;DHT22;2338;49.602;8.722;2024-01-16T09:17:49;0.00;99.90
4651;DHT22;2338;49.602;8.722;2024-01-16T09:20:37;0.10;99.90
4651;DHT22;2338;49.602;8.722;2024-01-16T09:23:22;0.10;99.90
4651;DHT22;2338;49.602;8.722;2024-01-16T09:26:08;0.20;99.90
4651;DHT22;2338;49.602;8.722;2024-01-16T09:28:54;0.20;99.90
4651;DHT22;2338;49.602;8.722;2024-01-16T09:31:39;0.30;99.90
4651;DHT22;2338;49.602;8.722;2024-01-16T09:34:25;0.30;99.90
4651;DHT22;2338;49.602;8.722;2024-01-16T09:37:12;0.30;99.90
4651;DHT22;2338;49.602;8.722;2024-01-16T09:39:59;0.30;99.90
4651;DHT22;2338;49.602;8.722;2024-01-16T09:42:44;0.00;99.90
4651;DHT22;2338;49.602;8.722;2024-01-16T09:45:30;0.00;99.90
4651;DHT22;2338;49.602;8.722;2024-01-16T09:48:17;0.10;99.90
4651;DHT22;2338;49.602;8.722;2024-01-16T09:51:03;0.10;99.90
4651;DHT22;2338;49.602;8.722;2024-01-16T09:53:50;0.20;99.90
4651;DHT22;2338;49.602;8.722;2024-01-16T09:56:41;0.30;99.90
4651;DHT22;2338;49.602;8.722;2024-01-16T09:59:29;0.50;99.90
4651;DHT22;2338;49.602;8.722;2024-01-16T10:02:16;0.60;99.90
4651;DHT22;2338;49.602;8.722;2024-01-16T10:05:05;0.60;99.90
4651;DHT22;2338;49.602;8.722;2024-01-16T10:07:52;0.70;99.90
4651;DHT22;2338;49.602;8.722;2024-01-16T10:10:39;0.80;99.90
4651;DHT22;2338;49.602;8.722;2024-01-16T10:13:25;0.90;99.90
4651;DHT22;2338;49.602;8.722;2024-01-16T10:16:11;1.00;99.90
4651;DHT22;2338;49.602;8.722;2024-01-16T10:19:03;0.90;99.90
4651;DHT22;2338;49.602;8.722;2024-01-16T10:21:51;0.90;99.90
4651;DHT22;2338;49.602;8.722;2024-01-16T10:24:36;0.90;99.90
4651;DHT22;2338;49.602;8.722;2024-01-16T10:27:23;1.10;99.90
4651;DHT22;2338;49.602;8.722;2024-01-16T10:30:14;1.20;99.90
4651;DHT22;2338;49.602;8.722;2024-01-16T10:33:13;1.30;99.90
4651;DHT22;2338;49.602;8.722;2024-01-16T10:36:10;1.40;99.90
4651;DHT22;2338;49.602;8.722;2024-01-16T10:39:03;1.60;99.90
4651;DHT22;2338;49.602;8.722;2024-01-16T10:41:57;1.80;99.90
4651;DHT22;2338;49.602;8.722;2024-01-16T10:44:54;1.90;99.90
4651;DHT22;2338;49.602;8.722;2024-01-16T10:47:40;2.00;99.90
4651;DHT22;2338;49.602;8.722;2024-01-16T10:50:27;2.10;99.90
4651;DHT22;2338;49.602;8.722;2024-01-16T10:53:14;2.20;99.90
4651;DHT22;2338;49.602;8.722;2024-01-16T10:56:02;2.40;99.90
4651;DHT22;2338;49.602;8.722;2024-01-16T10:58:56;2.50;99.90
4651;DHT22;2338;49.602;8.722;2024-01-16T11:01:48;2.60;99.90
4651;DHT22;2338;49.602;8.722;2024-01-16T11:04:35;2.50;99.90
4651;DHT22;2338;49.602;8.722;2024-01-16T11:07:22;2.50;99.90
4651;DHT22;2338;49.602;8.722;2024-01-16T11:10:10;2.60;99.90
4651;DHT22;2338;49.602;8.722;2024-01-16T11:13:00;2.60;99.90
4651;DHT22;2338;49.602;8.722;2024-01-16T11:15:47;2.50;99.90
4651;DHT22;2338;49.602;8.722;2024-01-16T11:18:34;2.40;99.90
4651;DHT22;2338;49.602;8.722;2024-01-16T11:21:20;2.50;99.90
4651;DHT22;2338;49.602;8.722;2024-01-16T11:24:06;2.40;99.90
4651;DHT22;2338;49.602;8.722;2024-01-16T11:26:52;2.20;99.90
4651;DHT22;2338;49.602;8.722;2024-01-16T11:29:38;2.20;99.90
4651;DHT22;2338;49.602;8.722;2024-01-16T11:32:34;2.30;99.90
4651;DHT22;2338;49.602;8.722;2024-01-16T11:35:32;2.20;99.90
4651;DHT22;2338;49.602;8.722;2024-01-16T11:38:18;2.20;99.90
4651;DHT22;2338;49.602;8.722;2024-01-16T11:41:05;2.30;99.90
4651;DHT22;2338;49.602;8.722;2024-01-16T11:43:51;2.30;99.90
4651;DHT22;2338;49.602;8.722;2024-01-16T11:47:01;2.30;99.90
4651;DHT22;2338;49.602;8.722;2024-01-16T11:49:48;2.40;99.90
4651;DHT22;2338;49.602;8.722;2024-01-16T11:52:42;2.40;99.90
4651;DHT22;2338;49.602;8.722;2024-01-16T11:55:29;2.30;99.90
4651;DHT22;2338;49.602;8.722;2024-01-16T11:58:31;2.30;99.90
4651;DHT22;2338;49.602;8.722;2024-01-16T12:01:22;2.30;99.90
4651;DHT22;2338;49.602;8.722;2024-01-16T12:04:08;2.40;99.90
4651;DHT22;2338;49.602;8.722;2024-01-16T12:06:57;2.30;99.90
4651;DHT22;2338;49.602;8.722;2024-01-16T12:09:44;2.40;99.90
4651;DHT22;2338;49.602;8.722;2024-01-16T12:12:30;2.30;99.90
4651;DHT22;2338;49.602;8.722;2024-01-16T12:15:16;2.30;99.90
4651;DHT22;2338;49.602;8.722;2024-01-16T12:18:03;2.20;99.90
4651;DHT22;2338;49.602;8.722;2024-01-16T12:20:49;2.30;99.90
4651;DHT22;2338;49.602;8.722;2024-01-16T12:23:34;2.50;99.90
4651;DHT22;2338;49.602;8.722;2024-01-16T12:26:22;2.70;99.90
4651;DHT22;2338;49.602;8.722;2024-01-16T12:29:07;2.80;99.90
4651;DHT22;2338;49.602;8.722;2024-01-16T12:32:05;2.90;99.90
4651;DHT22;2338;49.602;8.722;2024-01-16T12:34:51;2.80;99.90
4651;DHT22;2338;49.602;8.722;2024-01-16T12:37:37;2.80;99.90
4651;DHT22;2338;49.602;8.722;2024-01-16T12:40:23;2.90;99.90
4651;DHT22;2338;49.602;8.722;2024-01-16T12:43:10;3.30;99.90
4651;DHT22;2338;49.602;8.722;2024-01-16T12:45:56;3.70;99.90
4651;DHT22;2338;49.602;8.722;2024-01-16T12:48:42;4.10;99.90
4651;DHT22;2338;49.602;8.722;2024-01-16T12:51:28;4.70;96.00
4651;DHT22;2338;49.602;8.722;2024-01-16T12:54:14;5.30;85.30
4651;DHT22;2338;49.602;8.722;2024-01-16T12:57:00;5.40;73.90
4651;DHT22;2338;49.602;8.722;2024-01-16T12:59:48;5.80;69.20
4651;DHT22;2338;49.602;8.722;2024-01-16T13:02:33;6.00;63.20
4651;DHT22;2338;49.602;8.722;2024-01-16T13:05:20;6.20;48.20
4651;DHT22;2338;49.602;8.722;2024-01-16T13:08:05;6.70;49.20
4651;DHT22;2338;49.602;8.722;2024-01-16T13:11:04;7.30;41.10
4651;DHT22;2338;49.602;8.722;2024-01-16T13:14:00;7.90;31.70
4651;DHT22;2338;49.602;8.722;2024-01-16T13:16:49;8.40;26.70
4651;DHT22;2338;49.602;8.722;2024-01-16T13:19:35;8.60;21.80
4651;DHT22;2338;49.602;8.722;2024-01-16T13:22:21;8.90;21.30
4651;DHT22;2338;49.602;8.722;2024-01-16T13:25:07;9.50;18.70
4651;DHT22;2338;49.602;8.722;2024-01-16T13:27:52;9.70;15.00
4651;DHT22;2338;49.602;8.722;2024-01-16T13:30:38;9.30;14.00
4651;DHT22;2338;49.602;8.722;2024-01-16T13:33:25;8.40;14.90
4651;DHT22;2338;49.602;8.722;2024-01-16T13:36:12;7.30;17.00
4651;DHT22;2338;49.602;8.722;2024-01-16T13:38:57;6.80;20.40
4651;DHT22;2338;49.602;8.722;2024-01-16T13:41:43;8.10;17.60
4651;DHT22;2338;49.602;8.722;2024-01-16T13:44:29;9.80;13.30
4651;DHT22;2338;49.602;8.722;2024-01-16T13:47:15;10.80;8.40
4651;DHT22;2338;49.602;8.722;2024-01-16T13:50:05;11.30;6.40
4651;DHT22;2338;49.602;8.722;2024-01-16T13:52:51;10.00;6.80
4651;DHT22;2338;49.602;8.722;2024-01-16T13:55:37;8.30;12.10
4651;DHT22;2338;49.602;8.722;2024-01-16T13:58:23;6.70;16.60
4651;DHT22;2338;49.602;8.722;2024-01-16T14:01:09;5.60;22.30
4651;DHT22;2338;49.602;8.722;2024-01-16T14:03:54;4.60;27.10
4651;DHT22;2338;49.602;8.722;2024-01-16T14:06:41;4.40;33.70
4651;DHT22;2338;49.602;8.722;2024-01-16T14:09:27;4.20;39.80
4651;DHT22;2338;49.602;8.722;2024-01-16T14:12:14;4.10;49.50
4651;DHT22;2338;49.602;8.722;2024-01-16T14:14:59;3.90;48.50
4651;DHT22;2338;49.602;8.722;2024-01-16T14:17:48;3.90;49.00
4651;DHT22;2338;49.602;8.722;2024-01-16T14:20:34;3.80;47.60
4651;DHT22;2338;49.602;8.722;2024-01-16T14:23:21;3.70;47.10
4651;DHT22;2338;49.602;8.722;2024-01-16T14:26:07;3.40;48.50
4651;DHT22;2338;49.602;8.722;2024-01-16T14:28:53;3.50;47.70
4651;DHT22;2338;49.602;8.722;2024-01-16T14:31:39;3.30;56.60
4651;DHT22;2338;49.602;8.722;2024-01-16T14:34:27;3.20;58.50
4651;DHT22;2338;49.602;8.722;2024-01-16T14:37:13;3.00;60.20
4651;DHT22;2338;49.602;8.722;2024-01-16T14:40:03;3.00;64.40
4651;DHT22;2338;49.602;8.722;2024-01-16T14:42:53;2.90;63.20
4651;DHT22;2338;49.602;8.722;2024-01-16T14:45:38;2.90;67.60
4651;DHT22;2338;49.602;8.722;2024-01-16T14:48:25;2.70;67.20
4651;DHT22;2338;49.602;8.722;2024-01-16T14:51:10;2.70;69.90
4651;DHT22;2338;49.602;8.722;2024-01-16T14:53:56;2.60;72.60
4651;DHT22;2338;49.602;8.722;2024-01-16T14:56:43;2.70;72.50
4651;DHT22;2338;49.602;8.722;2024-01-16T14:59:28;2.60;75.00
4651;DHT22;2338;49.602;8.722;2024-01-16T15:02:14;2.60;76.50
4651;DHT22;2338;49.602;8.722;2024-01-16T15:05:00;2.60;78.10
4651;DHT22;2338;49.602;8.722;2024-01-16T15:07:47;2.60;80.00
4651;DHT22;2338;49.602;8.722;2024-01-16T15:10:33;2.70;83.40
4651;DHT22;2338;49.602;8.722;2024-01-16T15:13:21;2.60;80.50
4651;DHT22;2338;49.602;8.722;2024-01-16T15:16:07;2.40;80.60
4651;DHT22;2338;49.602;8.722;2024-01-16T15:18:53;2.40;83.70
4651;DHT22;2338;49.602;8.722;2024-01-16T15:21:41;2.30;90.40
4651;DHT22;2338;49.602;8.722;2024-01-16T15:24:26;2.00;91.70
4651;DHT22;2338;49.602;8.722;2024-01-16T15:27:12;1.70;95.10
4651;DHT22;2338;49.602;8.722;2024-01-16T15:29:59;1.60;96.30
4651;DHT22;2338;49.602;8.722;2024-01-16T15:32:45;1.40;99.90
4651;DHT22;2338;49.602;8.722;2024-01-16T15:35:31;1.40;99.90
4651;DHT22;2338;49.602;8.722;2024-01-16T15:38:17;1.20;99.90
4651;DHT22;2338;49.602;8.722;2024-01-16T15:41:03;1.00;99.90
4651;DHT22;2338;49.602;8.722;2024-01-16T15:43:48;1.00;99.90
4651;DHT22;2338;49.602;8.722;2024-01-16T15:46:53;0.80;99.90
4651;DHT22;2338;49.602;8.722;2024-01-16T15:49:39;0.50;99.90
4651;DHT22;2338;49.602;8.722;2024-01-16T15:52:24;0.40;99.90
4651;DHT22;2338;49.602;8.722;2024-01-16T15:55:10;0.20;99.90
4651;DHT22;2338;49.602;8.722;2024-01-16T15:57:56;0.10;99.90
4651;DHT22;2338;49.602;8.722;2024-01-16T16:00:42;0.00;99.90
4651;DHT22;2338;49.602;8.722;2024-01-16T16:03:29;-0.20;99.90
4651;DHT22;2338;49.602;8.722;2024-01-16T16:06:15;-0.20;99.90
4651;DHT22;2338;49.602;8.722;2024-01-16T16:09:01;-0.30;99.90
4651;DHT22;2338;49.602;8.722;2024-01-16T16:11:46;-0.40;99.90
4651;DHT22;2338;49.602;8.722;2024-01-16T16:14:33;-0.40;99.90
4651;DHT22;2338;49.602;8.722;2024-01-16T16:17:19;-0.40;99.90
4651;DHT22;2338;49.602;8.722;2024-01-16T16:20:07;-0.60;99.90
4651;DHT22;2338;49.602;8.722;2024-01-16T16:22:54;-0.60;99.90
4651;DHT22;2338;49.602;8.722;2024-01-16T16:25:45;-0.70;99.90
4651;DHT22;2338;49.602;8.722;2024-01-16T16:28:30;-0.70;99.90
4651;DHT22;2338;49.602;8.722;2024-01-16T16:31:16;-0.90;99.90
4651;DHT22;2338;49.602;8.722;2024-01-16T16:34:03;-0.80;99.90
4651;DHT22;2338;49.602;8.722;2024-01-16T16:36:50;-0.70;99.90
4651;DHT22;2338;49.602;8.722;2024-01-16T16:39:36;-0.80;99.90
4651;DHT22;2338;49.602;8.722;2024-01-16T16:42:21;-0.90;99.90
4651;DHT22;2338;49.602;8.722;2024-01-16T16:45:08;-1.00;99.90
4651;DHT22;2338;49.602;8.722;2024-01-16T16:47:56;-1.10;99.90
4651;DHT22;2338;49.602;8.722;2024-01-16T16:50:42;-1.30;99.90
4651;DHT22;2338;49.602;8.722;2024-01-16T16:53:29;-1.40;99.90
4651;DHT22;2338;49.602;8.722;2024-01-16T16:56:15;-1.40;99.90
4651;DHT22;2338;49.602;8.722;2024-01-16T16:59:00;-1.50;99.90
4651;DHT22;2338;49.602;8.722;2024-01-16T17:01:46;-1.50;99.90
4651;DHT22;2338;49.602;8.722;2024-01-16T17:04:31;-1.60;99.90
4651;DHT22;2338;49.602;8.722;2024-01-16T17:07:17;-1.60;99.90
4651;DHT22;2338;49.602;8.722;2024-01-16T17:10:05;-1.60;99.90
4651;DHT22;2338;49.602;8.722;2024-01-16T17:12:51;-1.70;99.90
4651;DHT22;2338;49.602;8.722;2024-01-16T17:15:36;-1.90;99.90
4651;DHT22;2338;49.602;8.722;2024-01-16T17:18:22;-2.00;99.90
4651;DHT22;2338;49.602;8.722;2024-01-16T17:21:08;-2.10;99.90
4651;DHT22;2338;49.602;8.722;2024-01-16T17:23:53;-2.20;99.90
4651;DHT22;2338;49.602;8.722;2024-01-16T17:26:40;-2.10;99.90
4651;DHT22;2338;49.602;8.722;2024-01-16T17:29:29;-2.10;99.90
4651;DHT22;2338;49.602;8.722;2024-01-16T17:32:14;-2.20;99.90
4651;DHT22;2338;49.602;8.722;2024-01-16T17:35:02;-2.20;99.90
4651;DHT22;2338;49.602;8.722;2024-01-16T17:37:48;-2.30;99.90
4651;DHT22;2338;49.602;8.722;2024-01-16T17:40:35;-2.30;99.90
4651;DHT22;2338;49.602;8.722;2024-01-16T17:43:22;-2.40;99.90
4651;DHT22;2338;49.602;8.722;2024-01-16T17:46:08;-2.30;99.90
4651;DHT22;2338;49.602;8.722;2024-01-16T17:48:54;-2.50;99.90
4651;DHT22;2338;49.602;8.722;2024-01-16T17:51:40;-2.50;99.90
4651;DHT22;2338;49.602;8.722;2024-01-16T17:54:25;-2.50;99.90
4651;DHT22;2338;49.602;8.722;2024-01-16T17:57:11;-2.60;99.90
4651;DHT22;2338;49.602;8.722;2024-01-16T17:59:58;-2.60;99.90
4651;DHT22;2338;49.602;8.722;2024-01-16T18:02:44;-2.60;99.90
4651;DHT22;2338;49.602;8.722;2024-01-16T18:05:31;-2.60;99.90
4651;DHT22;2338;49.602;8.722;2024-01-16T18:08:17;-2.80;99.90
4651;DHT22;2338;49.602;8.722;2024-01-16T18:11:03;-2.80;99.90
4651;DHT22;2338;49.602;8.722;2024-01-16T18:13:49;-2.80;99.90
4651;DHT22;2338;49.602;8.722;2024-01-16T18:16:36;-2.90;99.90
4651;DHT22;2338;49.602;8.722;2024-01-16T18:19:23;-2.80;99.90